Time;durP1;ratioP1;P1;durP2;ratioP2;P2;SDS_P1;SDS_P2;PMS_P1;PMS_P2;Temp;Humidity;BMP_temperature;BMP_pressure;BME280_temperature;BME280_humidity;BME280_pressure;Samples;Min_cycle;Max_cycle;Signal;HPM_P1;HPM_P2
2021/05/31 00:02:08;;;;;;;3.25;1.20;;;10.80;99.90;;;;;;1972796;73;21027;-81
2021/05/31 00:04:34;;;;;;;2.50;1.22;;;10.70;99.90;;;;;;1973010;73;21076;-81
2021/05/31 00:07:01;;;;;;;1.10;1.00;;;10.70;99.90;;;;;;1972907;73;21135;-81
2021/05/31 00:09:27;;;;;;;6.92;1.30;;;10.70;99.90;;;;;;1972933;73;21123;-80
2021/05/31 00:11:53;;;;;;;6.83;1.20;;;10.50;99.90;;;;;;1972936;73;21054;-80
2021/05/31 00:14:19;;;;;;;1.45;1.00;;;10.50;99.90;;;;;;1973017;73;21088;-80
2021/05/31 00:16:45;;;;;;;1.75;1.02;;;10.50;99.90;;;;;;1972953;73;21067;-81
2021/05/31 00:19:12;;;;;;;6.55;1.30;;;10.40;99.90;;;;;;1972946;73;21152;-82
2021/05/31 00:21:39;;;;;;;3.08;1.17;;;10.40;99.90;;;;;;1972968;73;21092;-81
2021/05/31 00:24:05;;;;;;;1.45;0.95;;;10.30;99.90;;;;;;1972912;73;21079;-82
2021/05/31 00:26:31;;;;;;;2.20;1.12;;;10.30;99.90;;;;;;1972961;73;21121;-80
2021/05/31 00:28:57;;;;;;;1.27;1.00;;;10.20;99.90;;;;;;1973027;73;21161;-80
2021/05/31 00:31:23;;;;;;;1.62;1.10;;;10.30;99.90;;;;;;1972970;73;21008;-80
2021/05/31 00:33:49;;;;;;;4.20;1.05;;;10.30;99.90;;;;;;1973041;73;21178;-80
2021/05/31 00:36:15;;;;;;;0.98;0.90;;;10.20;99.90;;;;;;1973295;73;21057;-80
2021/05/31 00:38:42;;;;;;;2.40;1.40;;;10.10;99.90;;;;;;1973329;73;21148;-79
2021/05/31 00:41:08;;;;;;;2.00;1.45;;;10.10;99.90;;;;;;1973216;73;21076;-80
2021/05/31 00:43:34;;;;;;;1.72;1.02;;;10.00;99.90;;;;;;1973113;73;21135;-81
2021/05/31 00:46:00;;;;;;;6.25;1.10;;;10.00;99.90;;;;;;1973440;73;21064;-80
2021/05/31 00:48:27;;;;;;;5.30;1.30;;;9.90;99.90;;;;;;1973411;73;21055;-79
2021/05/31 00:50:53;;;;;;;4.05;1.55;;;9.80;99.90;;;;;;1973254;72;21132;-80
2021/05/31 00:53:19;;;;;;;1.52;1.30;;;9.90;99.90;;;;;;1973241;73;21072;-79
2021/05/31 00:55:45;;;;;;;1.45;1.27;;;9.90;99.90;;;;;;1972950;73;21000;-80
2021/05/31 00:58:11;;;;;;;4.12;0.95;;;9.80;99.90;;;;;;1973015;73;21060;-79
2021/05/31 01:00:38;;;;;;;1.62;1.42;;;9.80;99.90;;;;;;1972954;73;21080;-80
2021/05/31 01:03:04;;;;;;;1.65;1.15;;;9.70;99.90;;;;;;1972853;73;21062;-80
2021/05/31 01:05:30;;;;;;;1.35;0.98;;;9.70;99.90;;;;;;1972889;73;21051;-79
2021/05/31 01:07:57;;;;;;;3.00;1.25;;;9.60;99.90;;;;;;1972890;72;21184;-80
2021/05/31 01:10:25;;;;;;;2.95;1.15;;;9.50;99.90;;;;;;1973960;72;21074;-79
2021/05/31 01:12:51;;;;;;;1.42;1.25;;;9.50;99.90;;;;;;1972965;72;21519;-80
2021/05/31 01:15:18;;;;;;;1.25;1.05;;;9.40;99.90;;;;;;1970484;72;21132;-80
2021/05/31 01:17:44;;;;;;;2.67;1.30;;;9.50;99.90;;;;;;1972818;73;21051;-80
2021/05/31 01:20:10;;;;;;;1.00;0.90;;;9.50;99.90;;;;;;1973021;73;21068;-80
2021/05/31 01:22:36;;;;;;;1.57;1.37;;;9.50;99.90;;;;;;1972964;73;21128;-79
2021/05/31 01:25:02;;;;;;;3.75;1.47;;;9.40;99.90;;;;;;1972837;73;21085;-80
2021/05/31 01:27:28;;;;;;;2.27;1.02;;;9.40;99.90;;;;;;1972999;73;21455;-80
2021/05/31 01:29:55;;;;;;;4.40;1.30;;;9.30;99.90;;;;;;1972947;73;21492;-79
2021/05/31 01:32:21;;;;;;;2.33;1.20;;;9.30;99.90;;;;;;1972881;73;21505;-80
2021/05/31 01:34:48;;;;;;;3.17;1.35;;;9.20;99.90;;;;;;1973011;73;21094;-79
2021/05/31 01:37:14;;;;;;;3.65;1.30;;;9.20;99.90;;;;;;1972919;73;21078;-79
2021/05/31 01:39:41;;;;;;;6.08;1.47;;;9.10;99.90;;;;;;1973027;73;21455;-79
2021/05/31 01:42:07;;;;;;;1.22;1.12;;;9.10;99.90;;;;;;1972977;73;21591;-79
2021/05/31 01:44:33;;;;;;;2.42;1.10;;;9.00;99.90;;;;;;1972949;73;21459;-80
2021/05/31 01:46:59;;;;;;;1.57;1.12;;;8.90;99.90;;;;;;1972972;73;21536;-79
2021/05/31 01:49:25;;;;;;;1.22;1.00;;;8.90;99.90;;;;;;1973532;73;21072;-80
2021/05/31 01:51:51;;;;;;;1.87;1.25;;;9.00;99.90;;;;;;1973205;73;21028;-80
2021/05/31 01:54:17;;;;;;;4.42;1.42;;;8.90;99.90;;;;;;1973276;73;21122;-80
2021/05/31 01:56:43;;;;;;;5.45;1.90;;;8.90;99.90;;;;;;1973181;73;21011;-80
2021/05/31 01:59:10;;;;;;;6.22;1.62;;;8.90;99.90;;;;;;1973091;73;21015;-79
2021/05/31 02:01:36;;;;;;;1.00;1.00;;;8.80;99.90;;;;;;1973025;73;21122;-79
2021/05/31 02:04:02;;;;;;;1.37;1.27;;;8.80;99.90;;;;;;1972816;73;21071;-79
2021/05/31 02:06:28;;;;;;;2.90;1.42;;;8.70;99.90;;;;;;1972925;73;21475;-80
2021/05/31 02:08:54;;;;;;;1.37;1.15;;;8.60;99.90;;;;;;1972883;73;21389;-79
2021/05/31 02:11:20;;;;;;;1.52;1.30;;;8.50;99.90;;;;;;1972859;73;21475;-79
2021/05/31 02:13:46;;;;;;;1.85;1.30;;;8.50;99.90;;;;;;1972978;73;21086;-79
2021/05/31 02:16:13;;;;;;;2.67;1.45;;;8.40;99.90;;;;;;1972863;73;21125;-80
2021/05/31 02:18:39;;;;;;;1.35;1.22;;;8.30;99.90;;;;;;1972904;73;21076;-80
2021/05/31 02:21:05;;;;;;;2.77;1.50;;;8.30;99.90;;;;;;1972971;73;21132;-80
2021/05/31 02:23:31;;;;;;;4.15;1.22;;;8.20;99.90;;;;;;1972770;73;21134;-80
2021/05/31 02:25:57;;;;;;;3.65;1.77;;;8.10;99.90;;;;;;1972869;73;21135;-80
2021/05/31 02:28:23;;;;;;;2.02;1.50;;;8.10;99.90;;;;;;1972862;73;21121;-80
2021/05/31 02:30:49;;;;;;;1.12;1.02;;;8.00;99.90;;;;;;1972858;73;21190;-80
2021/05/31 02:33:15;;;;;;;1.60;1.40;;;8.00;99.90;;;;;;1972753;73;21112;-79
2021/05/31 02:35:42;;;;;;;3.80;1.65;;;8.00;99.90;;;;;;1972812;73;21136;-79
2021/05/31 02:38:08;;;;;;;3.55;1.80;;;7.90;99.90;;;;;;1972845;73;21120;-79
2021/05/31 02:40:34;;;;;;;3.05;1.47;;;7.80;99.90;;;;;;1972884;73;21054;-79
2021/05/31 02:43:00;;;;;;;2.45;1.65;;;7.80;99.90;;;;;;1972928;73;21031;-79
2021/05/31 02:45:26;;;;;;;3.10;1.70;;;7.70;99.90;;;;;;1973281;73;21157;-79
2021/05/31 02:47:53;;;;;;;1.67;1.42;;;7.70;99.90;;;;;;1972917;72;21578;-80
2021/05/31 02:50:19;;;;;;;2.37;1.40;;;7.70;99.90;;;;;;1972790;73;21532;-80
2021/05/31 02:52:45;;;;;;;3.70;1.70;;;7.70;99.90;;;;;;1973026;73;21055;-79
2021/05/31 02:55:11;;;;;;;3.47;1.90;;;7.70;99.90;;;;;;1972979;73;21051;-79
2021/05/31 02:57:37;;;;;;;3.20;1.70;;;7.70;99.90;;;;;;1973073;73;21079;-79
2021/05/31 03:00:03;;;;;;;4.95;1.50;;;7.70;99.90;;;;;;1972901;73;21051;-80
2021/05/31 03:02:29;;;;;;;2.33;1.22;;;7.60;99.90;;;;;;1972872;73;21140;-79
2021/05/31 03:04:56;;;;;;;2.47;2.00;;;7.70;99.90;;;;;;1972806;73;21209;-79
2021/05/31 03:07:22;;;;;;;4.50;1.55;;;7.70;99.90;;;;;;1972642;73;21051;-80
2021/05/31 03:09:48;;;;;;;1.52;1.42;;;7.60;99.90;;;;;;1972755;73;21031;-79
2021/05/31 03:12:14;;;;;;;2.27;1.65;;;7.50;99.90;;;;;;1972821;73;21055;-79
2021/05/31 03:14:40;;;;;;;3.08;1.82;;;7.50;99.90;;;;;;1972841;73;21084;-79
2021/05/31 03:17:06;;;;;;;3.35;1.50;;;7.50;99.90;;;;;;1972886;73;21051;-79
2021/05/31 03:19:32;;;;;;;3.30;1.77;;;7.50;99.90;;;;;;1972772;73;21063;-79
2021/05/31 03:21:58;;;;;;;3.87;2.05;;;7.50;99.90;;;;;;1972754;73;21106;-79
2021/05/31 03:24:25;;;;;;;7.83;1.75;;;7.50;99.90;;;;;;1972759;73;21128;-79
2021/05/31 03:26:51;;;;;;;2.45;1.75;;;7.50;99.90;;;;;;1972962;73;21514;-80
2021/05/31 03:29:17;;;;;;;3.25;1.77;;;7.40;99.90;;;;;;1972731;73;21380;-79
2021/05/31 03:31:43;;;;;;;1.42;1.32;;;7.40;99.90;;;;;;1972769;73;21493;-79
2021/05/31 03:34:09;;;;;;;7.00;2.02;;;7.50;99.90;;;;;;1976536;73;21057;-79
2021/05/31 03:36:36;;;;;;;7.47;1.80;;;7.50;99.90;;;;;;1976738;73;21008;-79
2021/05/31 03:39:04;;;;;;;4.58;1.90;;;7.50;99.90;;;;;;1976607;73;21052;-79
2021/05/31 03:41:31;;;;;;;3.58;1.77;;;7.50;99.90;;;;;;1975458;73;21084;-79
2021/05/31 03:43:57;;;;;;;4.70;1.60;;;7.50;99.90;;;;;;1972839;73;21440;-79
2021/05/31 03:46:23;;;;;;;2.72;2.27;;;7.50;99.90;;;;;;1972888;73;21499;-79
2021/05/31 03:48:49;;;;;;;2.25;1.98;;;7.40;99.90;;;;;;1972944;73;21476;-78
2021/05/31 03:51:17;;;;;;;6.25;1.80;;;7.50;99.90;;;;;;1973021;73;21471;-79
2021/05/31 03:53:43;;;;;;;8.03;2.37;;;7.50;99.90;;;;;;1972972;71;21150;-79
2021/05/31 03:56:09;;;;;;;2.17;1.77;;;7.40;99.90;;;;;;1972939;73;21069;-78
2021/05/31 03:58:35;;;;;;;2.00;1.80;;;7.50;99.90;;;;;;1972913;73;21035;-79
2021/05/31 04:01:02;;;;;;;6.28;2.30;;;7.40;99.90;;;;;;1974181;72;21544;-79
2021/05/31 04:03:28;;;;;;;3.00;1.72;;;7.50;99.90;;;;;;1973051;72;21110;-79
2021/05/31 04:06:13;;;;;;;4.62;2.17;;;7.60;99.90;;;;;;1975320;72;21068;-79
2021/05/31 04:11:34;;;;;;;5.12;1.75;;;7.60;99.90;;;;;;1972915;73;21093;-79
2021/05/31 04:14:01;;;;;;;2.95;1.85;;;7.60;99.90;;;;;;1972945;73;21088;-79
2021/05/31 04:16:27;;;;;;;2.08;1.87;;;7.60;99.90;;;;;;1972766;73;21024;-78
2021/05/31 04:18:53;;;;;;;6.03;2.40;;;7.60;99.90;;;;;;1972844;73;21015;-78
2021/05/31 04:21:19;;;;;;;7.17;2.65;;;7.60;99.90;;;;;;1972967;73;21092;-79
2021/05/31 04:23:45;;;;;;;2.77;2.15;;;7.70;99.90;;;;;;1972798;73;21124;-78
2021/05/31 04:26:11;;;;;;;3.40;1.98;;;7.70;99.90;;;;;;1972954;73;21080;-78
2021/05/31 04:28:37;;;;;;;3.20;1.98;;;7.80;99.90;;;;;;1972918;73;21087;-78
2021/05/31 04:31:03;;;;;;;4.03;2.02;;;7.70;99.90;;;;;;1972991;73;21047;-80
2021/05/31 04:33:30;;;;;;;6.12;2.33;;;7.80;99.90;;;;;;1973078;73;21117;-78
2021/05/31 04:35:56;;;;;;;2.15;1.92;;;7.80;99.90;;;;;;1973131;73;21055;-78
2021/05/31 04:38:22;;;;;;;2.10;1.90;;;7.90;99.90;;;;;;1972884;73;21063;-78
2021/05/31 04:40:48;;;;;;;3.60;1.62;;;7.90;99.90;;;;;;1972898;73;21090;-78
2021/05/31 04:43:14;;;;;;;5.17;2.05;;;7.80;99.90;;;;;;2010982;71;21038;-78
2021/05/31 04:45:40;;;;;;;2.95;1.70;;;7.80;99.90;;;;;;1972982;73;21136;-78
2021/05/31 04:48:06;;;;;;;3.65;1.62;;;7.90;99.90;;;;;;1972792;73;21130;-78
2021/05/31 04:50:32;;;;;;;3.85;1.77;;;7.90;99.90;;;;;;1972923;73;21499;-78
2021/05/31 04:52:59;;;;;;;4.70;1.85;;;8.00;99.90;;;;;;1972910;73;21440;-78
2021/05/31 04:55:25;;;;;;;3.75;2.22;;;8.00;99.90;;;;;;1972873;73;21523;-78
2021/05/31 04:57:51;;;;;;;12.40;1.82;;;8.00;99.90;;;;;;1972825;73;21068;-78
2021/05/31 05:00:17;;;;;;;1.87;1.45;;;8.10;99.90;;;;;;1972994;73;21049;-78
2021/05/31 05:02:43;;;;;;;2.02;1.62;;;8.10;99.90;;;;;;1972743;73;21031;-78
2021/05/31 05:05:09;;;;;;;4.95;1.52;;;8.20;99.90;;;;;;1972901;73;21068;-78
2021/05/31 05:07:36;;;;;;;1.75;1.65;;;8.30;99.90;;;;;;1972901;73;21154;-77
2021/05/31 05:10:02;;;;;;;2.02;1.87;;;8.30;99.90;;;;;;1972870;73;21032;-78
2021/05/31 05:12:28;;;;;;;1.75;1.52;;;8.40;99.90;;;;;;1972756;73;21127;-78
2021/05/31 05:14:54;;;;;;;3.95;2.17;;;8.50;99.90;;;;;;1972833;73;21161;-78
2021/05/31 05:17:20;;;;;;;4.20;1.60;;;8.60;99.90;;;;;;1972742;73;21051;-79
2021/05/31 05:19:46;;;;;;;6.17;1.80;;;8.80;99.90;;;;;;1972977;73;21113;-79
2021/05/31 05:22:12;;;;;;;3.30;1.72;;;9.30;99.90;;;;;;1972791;73;21047;-79
2021/05/31 05:24:39;;;;;;;4.00;1.92;;;10.40;99.90;;;;;;1972851;73;21024;-78
2021/05/31 05:27:06;;;;;;;2.75;1.87;;;12.40;99.90;;;;;;1972867;73;21475;-78
2021/05/31 05:29:32;;;;;;;2.75;1.85;;;13.90;99.90;;;;;;1972922;73;21063;-78
2021/05/31 05:31:59;;;;;;;1.60;1.35;;;14.80;99.90;;;;;;1972944;73;21152;-78
2021/05/31 05:34:26;;;;;;;2.00;1.60;;;15.00;99.90;;;;;;1972902;73;21080;-78
2021/05/31 05:37:01;;;;;;;5.08;1.55;;;14.60;99.90;;;;;;1972885;73;21051;-78
2021/05/31 05:45:18;;;;;;;5.17;1.77;;;14.70;99.90;;;;;;1972884;73;21561;-82
2021/05/31 05:47:47;;;;;;;5.97;1.70;;;15.60;99.90;;;;;;1976095;71;21065;-82
2021/05/31 05:50:14;;;;;;;5.05;1.40;;;17.10;99.90;;;;;;1972858;73;21062;-80
2021/05/31 05:52:40;;;;;;;1.20;1.10;;;18.60;99.90;;;;;;1972867;73;21165;-82
2021/05/31 05:55:06;;;;;;;2.92;1.30;;;19.20;99.90;;;;;;1972935;73;21131;-79
2021/05/31 05:57:33;;;;;;;0.98;0.90;;;19.90;99.90;;;;;;1972884;73;21489;-84
2021/05/31 06:00:02;;;;;;;3.33;1.22;;;20.30;99.90;;;;;;1973261;73;21079;-80
2021/05/31 06:02:27;;;;;;;2.35;0.82;;;20.70;99.90;;;;;;1973368;71;21079;-82
2021/05/31 06:04:53;;;;;;;1.62;0.90;;;21.10;99.60;;;;;;1973054;73;21059;-82
2021/05/31 06:07:19;;;;;;;2.05;1.10;;;22.00;97.20;;;;;;1977482;72;21075;-82
2021/05/31 06:09:45;;;;;;;1.40;0.88;;;21.90;95.80;;;;;;1973532;72;21163;-86
2021/05/31 06:12:26;;;;;;;0.80;0.80;;;22.00;92.90;;;;;;1973175;73;21532;-84
2021/05/31 06:14:39;;;;;;;0.85;0.82;;;21.30;94.10;;;;;;1973666;72;21202;-85
2021/05/31 06:19:39;;;;;;;4.35;0.90;;;23.00;88.60;;;;;;1981945;72;21070;-85
2021/05/31 06:22:05;;;;;;;1.12;0.70;;;22.90;89.50;;;;;;1974680;72;21055;-87
2021/05/31 06:24:31;;;;;;;1.67;1.07;;;22.90;90.10;;;;;;1973041;72;21136;-86
2021/05/31 06:26:58;;;;;;;1.92;0.85;;;23.70;85.40;;;;;;1973161;72;21613;-86
2021/05/31 06:29:24;;;;;;;7.17;0.80;;;24.30;80.80;;;;;;1973449;73;21047;-85
2021/05/31 06:31:50;;;;;;;3.12;1.32;;;24.40;78.60;;;;;;1973212;73;21064;-85
2021/05/31 06:34:16;;;;;;;2.17;0.93;;;24.20;75.10;;;;;;1973261;73;21103;-86
2021/05/31 06:36:42;;;;;;;6.22;0.85;;;23.40;77.20;;;;;;1973371;73;21084;-87
2021/05/31 06:39:12;;;;;;;1.00;0.80;;;23.20;81.30;;;;;;1973187;73;21127;-86
2021/05/31 06:41:36;;;;;;;1.57;1.07;;;23.30;79.90;;;;;;1973269;71;21080;-81
2021/05/31 06:44:02;;;;;;;0.70;0.70;;;22.60;76.90;;;;;;1973085;73;21059;-77
2021/05/31 06:46:28;;;;;;;1.90;0.75;;;23.00;79.60;;;;;;1973078;73;21095;-77
2021/05/31 06:48:54;;;;;;;2.02;0.60;;;23.90;78.90;;;;;;1973109;73;21141;-77
2021/05/31 06:51:20;;;;;;;6.25;1.05;;;24.00;76.00;;;;;;1973122;73;21133;-77
2021/05/31 06:53:47;;;;;;;3.12;0.80;;;24.40;71.50;;;;;;1973074;73;21140;-77
2021/05/31 06:56:13;;;;;;;4.08;1.25;;;23.70;71.60;;;;;;1973222;73;21157;-78
2021/05/31 06:58:41;;;;;;;3.05;0.85;;;23.20;73.30;;;;;;1973233;73;21072;-78
2021/05/31 07:01:10;;;;;;;2.30;0.90;;;22.70;76.00;;;;;;1973076;73;21183;-77
2021/05/31 07:03:35;;;;;;;0.95;0.68;;;22.60;76.70;;;;;;1973104;73;21064;-76
2021/05/31 07:06:02;;;;;;;1.55;0.80;;;22.80;75.30;;;;;;1973180;73;21059;-76
2021/05/31 07:08:28;;;;;;;1.07;0.60;;;21.00;74.70;;;;;;1973210;73;21169;-79
2021/05/31 07:10:56;;;;;;;0.95;0.75;;;21.70;79.00;;;;;;1972986;72;21062;-79
2021/05/31 07:13:22;;;;;;;1.45;0.68;;;20.70;79.10;;;;;;1973165;71;21107;-75
2021/05/31 07:15:48;;;;;;;1.15;0.68;;;20.60;78.40;;;;;;1973134;73;21201;-77
2021/05/31 07:18:14;;;;;;;1.10;0.60;;;19.80;81.10;;;;;;1973297;73;21077;-80
2021/05/31 07:20:40;;;;;;;6.00;0.70;;;19.40;82.00;;;;;;1973279;73;21529;-78
2021/05/31 07:23:06;;;;;;;3.65;0.60;;;19.30;78.20;;;;;;1973153;73;21512;-79
2021/05/31 07:25:32;;;;;;;1.07;0.60;;;19.20;79.70;;;;;;1973068;73;21382;-77
2021/05/31 07:27:58;;;;;;;0.50;0.50;;;19.30;79.30;;;;;;1973285;73;21531;-77
2021/05/31 07:30:25;;;;;;;0.70;0.70;;;18.70;81.10;;;;;;1973172;73;21515;-78
2021/05/31 07:32:51;;;;;;;2.27;0.55;;;18.90;81.90;;;;;;1973077;73;21499;-80
2021/05/31 07:35:17;;;;;;;5.12;0.60;;;19.20;79.50;;;;;;1973148;73;21066;-81
2021/05/31 07:37:43;;;;;;;0.90;0.62;;;18.70;80.50;;;;;;1973227;73;21076;-77
2021/05/31 07:40:09;;;;;;;1.27;0.60;;;19.10;80.60;;;;;;1973133;73;21091;-77
2021/05/31 07:42:35;;;;;;;2.45;0.70;;;19.00;78.90;;;;;;1973112;73;21080;-79
2021/05/31 07:45:01;;;;;;;6.53;0.70;;;19.10;80.90;;;;;;1973127;73;21096;-78
2021/05/31 07:47:27;;;;;;;1.95;0.60;;;18.60;83.50;;;;;;1973634;73;21068;-78
2021/05/31 07:49:55;;;;;;;0.50;0.50;;;18.80;83.20;;;;;;1973323;73;21044;-82
2021/05/31 07:52:24;;;;;;;1.45;0.60;;;19.70;76.10;;;;;;1973190;72;21519;-79
2021/05/31 07:54:49;;;;;;;1.52;0.80;;;19.40;77.30;;;;;;1973486;71;21107;-80
2021/05/31 07:57:15;;;;;;;1.95;0.78;;;19.40;76.30;;;;;;1973124;73;21078;-80
2021/05/31 07:59:41;;;;;;;1.37;0.70;;;19.60;75.60;;;;;;1973142;73;21149;-79
2021/05/31 08:02:07;;;;;;;1.00;0.70;;;19.20;77.50;;;;;;1973217;73;21484;-85
2021/05/31 08:04:33;;;;;;;0.90;0.80;;;19.10;77.20;;;;;;1973167;73;21080;-81
2021/05/31 08:07:01;;;;;;;0.75;0.75;;;19.40;75.80;;;;;;1973181;73;21068;-85
2021/05/31 08:09:27;;;;;;;0.55;0.55;;;19.60;74.50;;;;;;1978098;72;21078;-83
2021/05/31 08:11:53;;;;;;;1.00;0.50;;;19.10;74.90;;;;;;1974278;72;21103;-83
2021/05/31 08:14:19;;;;;;;1.50;0.70;;;19.40;70.70;;;;;;1976987;72;21039;-83
2021/05/31 08:16:46;;;;;;;2.42;0.60;;;19.00;75.60;;;;;;1976580;72;21131;-84
2021/05/31 08:19:20;;;;;;;1.05;0.50;;;18.80;74.40;;;;;;1974213;73;21081;-84
2021/05/31 08:21:44;;;;;;;1.60;0.78;;;18.50;76.90;;;;;;1974501;71;21064;-84
2021/05/31 08:24:09;;;;;;;1.40;0.90;;;19.00;73.80;;;;;;1973952;71;21567;-83
2021/05/31 08:26:35;;;;;;;1.00;0.70;;;18.60;75.20;;;;;;1974038;73;21490;-82
2021/05/31 08:29:02;;;;;;;1.85;1.15;;;18.40;75.20;;;;;;1974326;73;21488;-84
2021/05/31 08:31:28;;;;;;;0.82;0.80;;;18.40;74.90;;;;;;1974305;73;21578;-81
2021/05/31 08:33:55;;;;;;;2.92;0.62;;;18.70;76.40;;;;;;1974086;73;21066;-84
2021/05/31 08:36:22;;;;;;;0.68;0.60;;;19.10;75.60;;;;;;1974265;73;21064;-84
2021/05/31 08:38:49;;;;;;;0.60;0.60;;;19.50;72.80;;;;;;1974364;73;21131;-83
2021/05/31 08:41:15;;;;;;;1.05;0.75;;;19.10;72.20;;;;;;1974084;72;21100;-84
2021/05/31 08:43:41;;;;;;;2.90;0.75;;;18.70;73.10;;;;;;1974105;73;21020;-84
2021/05/31 08:46:07;;;;;;;0.98;0.90;;;18.70;75.60;;;;;;1974414;73;21069;-83
2021/05/31 08:48:36;;;;;;;1.00;0.80;;;18.90;73.70;;;;;;1974665;73;21068;-82
2021/05/31 08:51:02;;;;;;;2.58;1.02;;;18.80;73.30;;;;;;1974551;73;21076;-84
2021/05/31 08:53:28;;;;;;;1.55;0.68;;;19.10;71.40;;;;;;1973771;73;21159;-83
2021/05/31 08:55:54;;;;;;;10.35;0.80;;;18.70;72.20;;;;;;1973563;73;21072;-81
2021/05/31 08:58:21;;;;;;;0.93;0.50;;;18.60;75.80;;;;;;1973294;73;21020;-82
2021/05/31 09:00:47;;;;;;;1.02;0.85;;;18.70;73.90;;;;;;1973248;73;21420;-83
2021/05/31 09:03:13;;;;;;;0.80;0.62;;;18.90;75.30;;;;;;1973196;73;21494;-81
2021/05/31 09:05:39;;;;;;;1.50;1.07;;;19.30;72.40;;;;;;1973172;73;21485;-83
2021/05/31 09:08:06;;;;;;;2.80;0.93;;;19.60;72.80;;;;;;1973218;73;21051;-83
2021/05/31 09:10:32;;;;;;;0.82;0.62;;;19.80;70.90;;;;;;1973378;73;21083;-83
2021/05/31 09:13:00;;;;;;;0.60;0.60;;;19.50;70.40;;;;;;1973767;73;21180;-82
2021/05/31 09:15:26;;;;;;;2.08;1.00;;;19.30;73.00;;;;;;1973113;73;21121;-81
2021/05/31 09:17:52;;;;;;;0.60;0.60;;;19.60;72.40;;;;;;1973357;73;21072;-84
2021/05/31 09:20:19;;;;;;;1.72;0.90;;;20.10;69.50;;;;;;1973263;73;21166;-82
2021/05/31 09:22:45;;;;;;;1.27;0.70;;;19.50;69.50;;;;;;1973088;73;21490;-82
2021/05/31 09:25:13;;;;;;;1.17;0.70;;;19.20;72.90;;;;;;1973205;73;21565;-82
2021/05/31 09:27:39;;;;;;;0.90;0.70;;;19.70;72.20;;;;;;1973129;73;21098;-80
2021/05/31 09:30:05;;;;;;;1.22;0.70;;;20.20;72.90;;;;;;1973186;73;21132;-80
2021/05/31 09:32:31;;;;;;;2.00;0.80;;;19.80;72.00;;;;;;1973184;73;21047;-76
2021/05/31 09:34:58;;;;;;;1.15;0.80;;;19.60;72.70;;;;;;1973054;73;21047;-81
2021/05/31 09:37:24;;;;;;;1.72;0.95;;;19.60;75.60;;;;;;1973615;73;21133;-81
2021/05/31 09:39:50;;;;;;;2.20;1.00;;;20.00;75.00;;;;;;1973115;73;21028;-84
2021/05/31 09:42:17;;;;;;;3.25;1.00;;;20.20;75.50;;;;;;1973242;73;21098;-81
2021/05/31 09:44:44;;;;;;;1.25;1.00;;;20.00;73.50;;;;;;1974798;73;21087;-81
2021/05/31 09:47:13;;;;;;;1.10;0.88;;;20.10;74.60;;;;;;1974190;73;21071;-81
2021/05/31 09:49:39;;;;;;;1.07;0.80;;;19.40;74.50;;;;;;1975520;73;21107;-77
2021/05/31 09:52:06;;;;;;;0.85;0.85;;;19.70;74.90;;;;;;1973223;73;21084;-82
2021/05/31 09:54:32;;;;;;;1.02;0.78;;;19.80;75.40;;;;;;1973175;73;21451;-82
2021/05/31 09:56:58;;;;;;;1.07;0.85;;;20.10;74.20;;;;;;1973085;73;21447;-83
2021/05/31 09:59:28;;;;;;;3.75;1.32;;;20.40;74.20;;;;;;1973124;73;21444;-83
2021/05/31 10:01:52;;;;;;;1.22;0.70;;;20.20;73.40;;;;;;1973595;71;21079;-81
2021/05/31 10:04:35;;;;;;;4.15;0.80;;;20.40;73.20;;;;;;1973257;73;21095;-83
2021/05/31 10:09:22;;;;;;;1.60;0.90;;;20.60;72.10;;;;;;1973126;72;21076;-82
2021/05/31 10:11:50;;;;;;;2.15;1.35;;;21.10;72.90;;;;;;1973204;73;21279;-84
2021/05/31 10:14:16;;;;;;;2.60;0.82;;;21.30;69.70;;;;;;1973065;73;21070;-82
2021/05/31 10:16:42;;;;;;;3.30;1.00;;;21.00;72.00;;;;;;1973069;73;21149;-83
2021/05/31 10:19:09;;;;;;;1.05;0.78;;;21.20;69.40;;;;;;1973146;72;21614;-85
2021/05/31 10:21:35;;;;;;;4.72;0.88;;;21.30;68.00;;;;;;1973030;73;21084;-83
2021/05/31 10:24:01;;;;;;;2.60;0.70;;;20.70;71.50;;;;;;1974183;72;21062;-85
2021/05/31 10:26:29;;;;;;;2.25;0.88;;;20.70;70.50;;;;;;1973117;73;21059;-77
2021/05/31 10:28:55;;;;;;;1.35;0.60;;;19.40;71.80;;;;;;1973126;73;21471;-83
2021/05/31 10:31:21;;;;;;;0.60;0.60;;;20.10;72.70;;;;;;1973067;73;21224;-82
2021/05/31 10:33:47;;;;;;;0.70;0.70;;;20.60;71.50;;;;;;1973052;73;21412;-83
2021/05/31 10:36:15;;;;;;;1.52;0.70;;;20.80;69.90;;;;;;1972244;72;21074;-83
2021/05/31 10:38:41;;;;;;;2.20;1.07;;;21.30;70.90;;;;;;1973154;71;21092;-77
2021/05/31 10:41:07;;;;;;;2.75;0.78;;;21.30;69.60;;;;;;1975500;72;21156;-80
2021/05/31 10:43:33;;;;;;;1.00;1.00;;;20.90;71.30;;;;;;1973112;73;21032;-82
2021/05/31 10:45:59;;;;;;;2.42;1.30;;;21.10;70.80;;;;;;1979696;72;21175;-80
2021/05/31 10:48:25;;;;;;;1.12;0.80;;;20.80;71.50;;;;;;1974792;72;21481;-84
2021/05/31 10:50:52;;;;;;;0.68;0.57;;;21.00;69.50;;;;;;1981329;72;21442;-84
2021/05/31 10:53:25;;;;;;;2.95;0.82;;;21.20;68.10;;;;;;1974947;72;21024;-84
2021/05/31 10:55:46;;;;;;;1.52;0.70;;;21.00;71.00;;;;;;1974332;71;21420;-84
2021/05/31 10:58:12;;;;;;;1.30;0.70;;;21.30;68.40;;;;;;1973408;73;21496;-81
2021/05/31 11:00:38;;;;;;;2.55;0.90;;;21.20;67.80;;;;;;1972951;73;21467;-81
2021/05/31 11:03:04;;;;;;;0.98;0.90;;;20.80;66.40;;;;;;1973111;73;21444;-82
2021/05/31 11:05:31;;;;;;;1.25;0.85;;;21.00;67.70;;;;;;1973323;73;21055;-82
2021/05/31 11:07:57;;;;;;;1.65;0.80;;;21.50;66.90;;;;;;1973326;72;21059;-81
2021/05/31 11:10:23;;;;;;;0.72;0.70;;;21.40;66.50;;;;;;1973156;73;21055;-81
2021/05/31 11:12:49;;;;;;;4.05;0.65;;;21.50;66.20;;;;;;1973015;73;21249;-84
2021/05/31 11:15:15;;;;;;;0.85;0.70;;;21.50;67.30;;;;;;1973099;73;21059;-81
2021/05/31 11:17:42;;;;;;;2.15;0.78;;;21.10;66.80;;;;;;1973335;73;21495;-81
2021/05/31 11:20:08;;;;;;;1.02;0.60;;;21.10;68.20;;;;;;1973170;73;21047;-81
2021/05/31 11:22:34;;;;;;;0.68;0.68;;;21.40;68.30;;;;;;1973199;73;21043;-80
2021/05/31 11:25:00;;;;;;;1.47;0.75;;;21.50;65.50;;;;;;1973124;73;21028;-80
2021/05/31 11:27:26;;;;;;;0.88;0.75;;;21.50;67.20;;;;;;1973129;73;21028;-82
2021/05/31 11:29:52;;;;;;;0.80;0.80;;;21.70;67.10;;;;;;1973328;73;21109;-79
2021/05/31 11:32:18;;;;;;;1.70;0.80;;;21.70;66.40;;;;;;1973201;73;21051;-82
2021/05/31 11:34:44;;;;;;;0.60;0.60;;;22.20;65.20;;;;;;1973176;73;21039;-83
2021/05/31 11:37:11;;;;;;;1.57;0.60;;;22.50;66.70;;;;;;1973039;73;21020;-83
2021/05/31 11:39:37;;;;;;;1.52;0.60;;;22.70;64.70;;;;;;1973087;73;21051;-82
2021/05/31 11:42:03;;;;;;;0.68;0.62;;;22.20;64.10;;;;;;1973211;73;21091;-79
2021/05/31 11:44:29;;;;;;;1.57;0.80;;;21.80;65.90;;;;;;1972982;73;21179;-81
2021/05/31 11:46:55;;;;;;;0.78;0.70;;;21.70;65.30;;;;;;1973321;73;21079;-80
2021/05/31 11:49:21;;;;;;;2.47;0.90;;;22.30;64.90;;;;;;1973141;73;21125;-80
2021/05/31 11:51:47;;;;;;;1.70;1.00;;;22.00;64.70;;;;;;1973015;73;21121;-79
2021/05/31 11:54:14;;;;;;;0.85;0.82;;;22.20;64.50;;;;;;1973030;73;21121;-79
2021/05/31 11:56:40;;;;;;;1.32;0.70;;;21.80;63.80;;;;;;1973300;73;21028;-79
2021/05/31 11:59:06;;;;;;;1.45;0.90;;;21.90;64.30;;;;;;1973201;73;21261;-80
2021/05/31 12:01:32;;;;;;;1.87;0.80;;;21.90;66.40;;;;;;1972821;73;21125;-80
2021/05/31 12:03:58;;;;;;;1.37;1.00;;;22.00;69.50;;;;;;1972818;73;21055;-80
2021/05/31 12:06:24;;;;;;;2.02;1.05;;;22.60;65.20;;;;;;1972695;73;21091;-80
2021/05/31 12:08:53;;;;;;;0.70;0.70;;;22.70;62.90;;;;;;1972951;73;21058;-80
2021/05/31 12:11:18;;;;;;;0.68;0.65;;;22.30;63.30;;;;;;1972844;71;21080;-79
2021/05/31 12:13:44;;;;;;;2.42;0.90;;;22.40;64.60;;;;;;1972702;72;21067;-79
2021/05/31 12:16:10;;;;;;;1.55;0.60;;;23.00;64.30;;;;;;1972857;73;21087;-79
2021/05/31 12:18:37;;;;;;;0.65;0.50;;;22.90;62.60;;;;;;1972809;73;21480;-80
2021/05/31 12:21:03;;;;;;;7.97;0.70;;;23.20;62.10;;;;;;1972856;73;21057;-79
2021/05/31 12:23:29;;;;;;;0.70;0.70;;;22.60;61.60;;;;;;1972813;73;21071;-79
2021/05/31 12:25:55;;;;;;;2.80;0.78;;;23.00;62.50;;;;;;1972980;73;21080;-79
2021/05/31 12:28:21;;;;;;;1.15;0.60;;;22.70;63.40;;;;;;2012596;71;21055;-78
2021/05/31 12:30:47;;;;;;;1.05;0.60;;;23.30;63.40;;;;;;1975920;73;21041;-78
2021/05/31 12:33:13;;;;;;;0.72;0.65;;;23.60;61.10;;;;;;1976247;73;21064;-78
2021/05/31 12:35:40;;;;;;;1.27;0.72;;;23.90;59.10;;;;;;1974339;73;21118;-81
2021/05/31 12:38:06;;;;;;;1.12;0.70;;;23.50;59.60;;;;;;1974838;73;21088;-77
2021/05/31 12:40:32;;;;;;;1.25;0.90;;;24.30;59.60;;;;;;1975533;73;21215;-77
2021/05/31 12:43:03;;;;;;;1.75;0.57;;;24.60;58.70;;;;;;1972959;73;21516;-80
2021/05/31 12:45:26;;;;;;;4.08;0.80;;;24.60;57.80;;;;;;1973477;71;21076;-83
2021/05/31 12:47:54;;;;;;;1.20;0.85;;;24.10;61.20;;;;;;1972991;73;21075;-81
2021/05/31 12:50:20;;;;;;;2.90;0.70;;;24.40;63.00;;;;;;1973175;73;21171;-83
2021/05/31 12:52:46;;;;;;;5.37;1.10;;;25.20;60.10;;;;;;1972939;73;21068;-82
2021/05/31 12:55:16;;;;;;;6.40;0.62;;;26.10;59.60;;;;;;1972878;73;21079;-80
2021/05/31 12:57:42;;;;;;;1.65;0.80;;;26.60;56.10;;;;;;1972972;73;21072;-80
2021/05/31 13:00:08;;;;;;;1.65;0.70;;;26.20;56.40;;;;;;1972890;73;21028;-80